Overview Statistics Trail Chart Weather Telemetry Raw packets
 

This is the latest recevied weather packets stored in our database for station/object SR8WXL-13. If no packets are shown the sender has not sent any weather packets the latest 10 day(s).

<< 1 2 3 4 >>
Time Temp. Humidity Pressure Rain* Wind** Luminosity Snow
1788651529 15° C 70% 1034.2 hPa 0 mm - - -
1788650753 15° C 68% 1034 hPa 0 mm - - -
1788649998 15° C 67% 1034.3 hPa 0 mm - - -
1788649163 16.11° C 68% 1033.8 hPa 0 mm - - -
1788648299 15° C 69% 1033.3 hPa 0 mm - - -
1788647580 15° C 69% 1033.3 hPa 0 mm - - -
1788646829 15° C 74% 1033.5 hPa 0 mm - - -
1788646104 15° C 77% 1033.3 hPa 0 mm - - -
1788645304 15° C 73% 1033.1 hPa 0 mm - - -
1788644448 16.11° C 72% 1033.2 hPa 0 mm - - -
1788643649 13.89° C 81% 1033.2 hPa 0 mm - - -
1788642759 12.78° C 93% 1032.9 hPa 0 mm - - -
1788641864 12.78° C 93% 1032.7 hPa 0 mm - - -
1788641073 12.78° C 91% 1032.9 hPa 0 mm - - -
1788640335 13.89° C 90% 1032.9 hPa 0 mm - - -
1788639556 13.89° C 86% 1032.9 hPa 0 mm - - -
1788638674 13.89° C 90% 1033.1 hPa 0 mm - - -
1788637791 13.89° C 88% 1032.8 hPa 0 mm - - -
1788637024 13.89° C 87% 1032.8 hPa 0 mm - - -
1788636278 13.89° C 85% 1032.7 hPa 0 mm - - -
1788635497 13.89° C 85% 1032.4 hPa 0 mm - - -
1788634722 13.89° C 85% 1032.4 hPa 0 mm - - -
1788633833 13.89° C 84% 1032.1 hPa 0 mm - - -
1788633109 13.89° C 82% 1032.1 hPa 0 mm - - -
1788632296 15° C 76% 1032.3 hPa 0 mm - - -

* Rain latest hour (hover to see other rain measurements)
** Current wind speed in m/s (hover to see current wind gust speed)